sensor_id;sensor_type;location;lat;lon;timestamp;P1;durP1;ratioP1;P2;durP2;ratioP2
9506;SDS011;4791;47.528;9.372;2023-07-31T00:05:56;3.63;;;1.60;;
9506;SDS011;4791;47.528;9.372;2023-07-31T00:20:59;3.03;;;1.70;;
9506;SDS011;4791;47.528;9.372;2023-07-31T00:35:59;2.93;;;1.50;;
9506;SDS011;4791;47.528;9.372;2023-07-31T00:51:02;4.93;;;1.70;;
9506;SDS011;4791;47.528;9.372;2023-07-31T01:36:36;4.33;;;2.00;;
9506;SDS011;4791;47.528;9.372;2023-07-31T01:51:36;4.93;;;1.92;;
9506;SDS011;4791;47.528;9.372;2023-07-31T02:06:37;6.07;;;2.00;;
9506;SDS011;4791;47.528;9.372;2023-07-31T02:21:38;5.57;;;1.98;;
9506;SDS011;4791;47.528;9.372;2023-07-31T02:36:40;3.60;;;1.90;;
9506;SDS011;4791;47.528;9.372;2023-07-31T02:51:41;3.50;;;1.70;;
9506;SDS011;4791;47.528;9.372;2023-07-31T03:06:41;4.03;;;2.20;;
9506;SDS011;4791;47.528;9.372;2023-07-31T03:21:41;3.70;;;2.13;;
9506;SDS011;4791;47.528;9.372;2023-07-31T03:36:44;6.27;;;2.20;;
9506;SDS011;4791;47.528;9.372;2023-07-31T03:51:47;4.87;;;1.80;;
9506;SDS011;4791;47.528;9.372;2023-07-31T04:06:49;3.97;;;1.93;;
9506;SDS011;4791;47.528;9.372;2023-07-31T04:21:50;3.87;;;2.00;;
9506;SDS011;4791;47.528;9.372;2023-07-31T04:36:50;3.78;;;1.77;;
9506;SDS011;4791;47.528;9.372;2023-07-31T04:51:51;6.18;;;2.03;;
9506;SDS011;4791;47.528;9.372;2023-07-31T05:06:51;5.30;;;2.00;;
9506;SDS011;4791;47.528;9.372;2023-07-31T05:21:51;4.25;;;2.00;;
9506;SDS011;4791;47.528;9.372;2023-07-31T05:36:52;5.67;;;2.00;;
9506;SDS011;4791;47.528;9.372;2023-07-31T05:51:55;2.90;;;1.77;;
9506;SDS011;4791;47.528;9.372;2023-07-31T06:06:57;6.27;;;2.17;;
9506;SDS011;4791;47.528;9.372;2023-07-31T06:22:00;4.93;;;1.70;;
9506;SDS011;4791;47.528;9.372;2023-07-31T06:37:00;4.10;;;1.90;;
9506;SDS011;4791;47.528;9.372;2023-07-31T06:52:03;4.17;;;1.87;;
9506;SDS011;4791;47.528;9.372;2023-07-31T07:07:04;4.25;;;2.25;;
9506;SDS011;4791;47.528;9.372;2023-07-31T07:22:04;5.93;;;2.03;;
9506;SDS011;4791;47.528;9.372;2023-07-31T07:37:05;3.70;;;1.80;;
9506;SDS011;4791;47.528;9.372;2023-07-31T07:52:06;3.50;;;1.70;;
9506;SDS011;4791;47.528;9.372;2023-07-31T08:07:06;4.93;;;1.93;;
9506;SDS011;4791;47.528;9.372;2023-07-31T08:22:07;5.18;;;1.67;;
9506;SDS011;4791;47.528;9.372;2023-07-31T08:37:07;5.00;;;2.00;;
9506;SDS011;4791;47.528;9.372;2023-07-31T08:52:07;4.93;;;1.80;;
9506;SDS011;4791;47.528;9.372;2023-07-31T09:07:08;4.20;;;1.98;;
9506;SDS011;4791;47.528;9.372;2023-07-31T09:22:09;6.00;;;2.20;;
9506;SDS011;4791;47.528;9.372;2023-07-31T09:37:11;3.47;;;1.80;;
9506;SDS011;4791;47.528;9.372;2023-07-31T09:52:12;5.10;;;1.73;;
9506;SDS011;4791;47.528;9.372;2023-07-31T10:07:13;4.30;;;1.70;;
9506;SDS011;4791;47.528;9.372;2023-07-31T10:22:19;4.07;;;1.63;;
9506;SDS011;4791;47.528;9.372;2023-07-31T10:52:29;4.13;;;1.48;;
9506;SDS011;4791;47.528;9.372;2023-07-31T11:07:50;6.50;;;1.97;;
9506;SDS011;4791;47.528;9.372;2023-07-31T11:22:50;6.23;;;1.70;;
9506;SDS011;4791;47.528;9.372;2023-07-31T11:37:50;3.97;;;1.80;;
9506;SDS011;4791;47.528;9.372;2023-07-31T11:52:52;3.20;;;1.87;;
9506;SDS011;4791;47.528;9.372;2023-07-31T12:07:55;3.83;;;1.70;;
9506;SDS011;4791;47.528;9.372;2023-07-31T12:22:56;3.00;;;1.77;;
9506;SDS011;4791;47.528;9.372;2023-07-31T12:38:00;3.67;;;1.70;;
9506;SDS011;4791;47.528;9.372;2023-07-31T12:53:01;4.27;;;1.83;;
9506;SDS011;4791;47.528;9.372;2023-07-31T13:08:03;3.50;;;1.60;;
9506;SDS011;4791;47.528;9.372;2023-07-31T13:23:03;3.63;;;1.43;;
9506;SDS011;4791;47.528;9.372;2023-07-31T13:38:08;2.67;;;1.43;;
9506;SDS011;4791;47.528;9.372;2023-07-31T13:53:09;3.67;;;1.53;;
9506;SDS011;4791;47.528;9.372;2023-07-31T14:08:09;5.38;;;1.80;;
9506;SDS011;4791;47.528;9.372;2023-07-31T14:23:09;6.38;;;1.92;;
9506;SDS011;4791;47.528;9.372;2023-07-31T14:38:10;3.77;;;1.83;;
9506;SDS011;4791;47.528;9.372;2023-07-31T14:53:10;3.50;;;1.53;;
9506;SDS011;4791;47.528;9.372;2023-07-31T15:08:11;3.27;;;1.93;;
9506;SDS011;4791;47.528;9.372;2023-07-31T15:23:13;4.30;;;2.07;;
9506;SDS011;4791;47.528;9.372;2023-07-31T15:38:14;5.40;;;2.97;;
9506;SDS011;4791;47.528;9.372;2023-07-31T15:53:14;4.10;;;2.50;;
9506;SDS011;4791;47.528;9.372;2023-07-31T16:08:15;3.28;;;1.80;;
9506;SDS011;4791;47.528;9.372;2023-07-31T16:23:15;3.45;;;1.80;;
9506;SDS011;4791;47.528;9.372;2023-07-31T16:38:16;3.45;;;1.80;;
9506;SDS011;4791;47.528;9.372;2023-07-31T16:53:19;4.68;;;1.95;;
9506;SDS011;4791;47.528;9.372;2023-07-31T17:08:19;4.73;;;1.70;;
9506;SDS011;4791;47.528;9.372;2023-07-31T17:23:22;3.25;;;1.80;;
9506;SDS011;4791;47.528;9.372;2023-07-31T17:38:22;5.57;;;2.15;;
9506;SDS011;4791;47.528;9.372;2023-07-31T17:53:23;3.75;;;1.85;;
9506;SDS011;4791;47.528;9.372;2023-07-31T18:08:23;4.07;;;1.85;;
9506;SDS011;4791;47.528;9.372;2023-07-31T18:23:23;4.00;;;1.70;;
9506;SDS011;4791;47.528;9.372;2023-07-31T18:38:24;6.87;;;2.27;;
9506;SDS011;4791;47.528;9.372;2023-07-31T18:53:24;3.83;;;2.03;;
9506;SDS011;4791;47.528;9.372;2023-07-31T19:08:25;5.10;;;2.40;;
9506;SDS011;4791;47.528;9.372;2023-07-31T19:23:28;5.23;;;2.70;;
9506;SDS011;4791;47.528;9.372;2023-07-31T19:38:28;5.85;;;2.63;;
9506;SDS011;4791;47.528;9.372;2023-07-31T19:53:28;5.40;;;2.78;;
9506;SDS011;4791;47.528;9.372;2023-07-31T20:08:31;5.57;;;4.22;;
9506;SDS011;4791;47.528;9.372;2023-07-31T20:23:32;6.03;;;3.70;;
9506;SDS011;4791;47.528;9.372;2023-07-31T20:38:32;6.55;;;3.20;;
9506;SDS011;4791;47.528;9.372;2023-07-31T20:53:33;6.53;;;3.97;;
9506;SDS011;4791;47.528;9.372;2023-07-31T21:08:34;6.80;;;5.40;;
9506;SDS011;4791;47.528;9.372;2023-07-31T21:23:35;8.63;;;4.07;;
9506;SDS011;4791;47.528;9.372;2023-07-31T21:38:38;7.28;;;3.60;;
9506;SDS011;4791;47.528;9.372;2023-07-31T21:53:38;4.73;;;3.27;;
9506;SDS011;4791;47.528;9.372;2023-07-31T22:08:39;6.85;;;3.88;;
9506;SDS011;4791;47.528;9.372;2023-07-31T22:23:40;6.70;;;4.83;;
9506;SDS011;4791;47.528;9.372;2023-07-31T22:38:40;9.93;;;5.15;;
9506;SDS011;4791;47.528;9.372;2023-07-31T22:53:40;8.45;;;5.90;;
9506;SDS011;4791;47.528;9.372;2023-07-31T23:08:43;8.20;;;5.70;;
9506;SDS011;4791;47.528;9.372;2023-07-31T23:23:44;9.13;;;6.30;;
9506;SDS011;4791;47.528;9.372;2023-07-31T23:38:44;6.32;;;5.25;;
9506;SDS011;4791;47.528;9.372;2023-07-31T23:53:45;7.80;;;5.47;;
